sensor_id;sensor_type;location;lat;lon;timestamp;P1;durP1;ratioP1;P2;durP2;ratioP2
25091;SDS011;13082;52.374;4.946;2022-09-12T00:01:15;12.07;;;8.63;;
25091;SDS011;13082;52.374;4.946;2022-09-12T00:03:43;11.83;;;8.60;;
25091;SDS011;13082;52.374;4.946;2022-09-12T00:06:11;12.83;;;9.23;;
25091;SDS011;13082;52.374;4.946;2022-09-12T00:08:41;15.77;;;8.32;;
25091;SDS011;13082;52.374;4.946;2022-09-12T00:11:07;12.60;;;9.40;;
25091;SDS011;13082;52.374;4.946;2022-09-12T00:13:35;15.03;;;9.57;;
25091;SDS011;13082;52.374;4.946;2022-09-12T00:16:02;11.07;;;8.63;;
25091;SDS011;13082;52.374;4.946;2022-09-12T00:18:27;9.83;;;8.83;;
25091;SDS011;13082;52.374;4.946;2022-09-12T00:20:53;10.63;;;8.83;;
25091;SDS011;13082;52.374;4.946;2022-09-12T00:23:19;13.30;;;8.53;;
25091;SDS011;13082;52.374;4.946;2022-09-12T00:25:45;14.00;;;9.97;;
25091;SDS011;13082;52.374;4.946;2022-09-12T00:28:12;11.70;;;9.77;;
25091;SDS011;13082;52.374;4.946;2022-09-12T00:30:40;16.27;;;10.37;;
25091;SDS011;13082;52.374;4.946;2022-09-12T00:33:10;13.50;;;10.37;;
25091;SDS011;13082;52.374;4.946;2022-09-12T00:35:43;13.57;;;10.23;;
25091;SDS011;13082;52.374;4.946;2022-09-12T00:38:14;13.77;;;10.77;;
25091;SDS011;13082;52.374;4.946;2022-09-12T00:40:41;16.57;;;11.97;;
25091;SDS011;13082;52.374;4.946;2022-09-12T00:43:14;17.23;;;10.57;;
25091;SDS011;13082;52.374;4.946;2022-09-12T00:45:58;14.40;;;11.37;;
25091;SDS011;13082;52.374;4.946;2022-09-12T00:48:30;16.23;;;11.73;;
25091;SDS011;13082;52.374;4.946;2022-09-12T00:51:02;13.00;;;10.93;;
25091;SDS011;13082;52.374;4.946;2022-09-12T00:53:28;14.77;;;11.27;;
25091;SDS011;13082;52.374;4.946;2022-09-12T00:55:53;14.27;;;11.50;;
25091;SDS011;13082;52.374;4.946;2022-09-12T00:58:22;19.47;;;12.87;;
25091;SDS011;13082;52.374;4.946;2022-09-12T01:00:54;17.70;;;11.77;;
25091;SDS011;13082;52.374;4.946;2022-09-12T01:03:21;17.63;;;13.03;;
25091;SDS011;13082;52.374;4.946;2022-09-12T01:08:37;20.90;;;13.67;;
25091;SDS011;13082;52.374;4.946;2022-09-12T01:11:05;16.80;;;12.10;;
25091;SDS011;13082;52.374;4.946;2022-09-12T01:13:33;17.53;;;13.57;;
25091;SDS011;13082;52.374;4.946;2022-09-12T01:16:01;16.43;;;12.77;;
25091;SDS011;13082;52.374;4.946;2022-09-12T01:18:42;16.43;;;12.60;;
25091;SDS011;13082;52.374;4.946;2022-09-12T01:35:23;18.07;;;13.27;;
25091;SDS011;13082;52.374;4.946;2022-09-12T01:43:33;17.13;;;12.60;;
25091;SDS011;13082;52.374;4.946;2022-09-12T01:48:49;19.47;;;14.03;;
25091;SDS011;13082;52.374;4.946;2022-09-12T01:51:44;22.33;;;13.73;;
25091;SDS011;13082;52.374;4.946;2022-09-12T01:54:49;18.13;;;13.70;;
25091;SDS011;13082;52.374;4.946;2022-09-12T01:57:21;18.30;;;12.33;;
25091;SDS011;13082;52.374;4.946;2022-09-12T01:59:54;16.67;;;12.60;;
25091;SDS011;13082;52.374;4.946;2022-09-12T02:02:32;18.00;;;14.60;;
25091;SDS011;13082;52.374;4.946;2022-09-12T02:05:09;16.50;;;12.53;;
25091;SDS011;13082;52.374;4.946;2022-09-12T02:07:52;17.40;;;12.83;;
25091;SDS011;13082;52.374;4.946;2022-09-12T02:10:45;19.03;;;13.07;;
25091;SDS011;13082;52.374;4.946;2022-09-12T02:13:24;18.63;;;12.93;;
25091;SDS011;13082;52.374;4.946;2022-09-12T02:16:18;18.30;;;12.60;;
25091;SDS011;13082;52.374;4.946;2022-09-12T02:19:06;16.87;;;11.27;;
25091;SDS011;13082;52.374;4.946;2022-09-12T02:21:44;16.33;;;12.77;;
25091;SDS011;13082;52.374;4.946;2022-09-12T02:24:14;17.47;;;12.43;;
25091;SDS011;13082;52.374;4.946;2022-09-12T02:27:00;17.03;;;13.20;;
25091;SDS011;13082;52.374;4.946;2022-09-12T02:29:30;17.60;;;13.30;;
25091;SDS011;13082;52.374;4.946;2022-09-12T02:31:57;17.77;;;12.47;;
25091;SDS011;13082;52.374;4.946;2022-09-12T02:34:34;21.03;;;13.43;;
25091;SDS011;13082;52.374;4.946;2022-09-12T02:39:50;18.20;;;13.77;;
25091;SDS011;13082;52.374;4.946;2022-09-12T02:42:20;18.13;;;12.80;;
25091;SDS011;13082;52.374;4.946;2022-09-12T02:44:46;21.40;;;12.90;;
25091;SDS011;13082;52.374;4.946;2022-09-12T02:49:56;18.57;;;13.00;;
25091;SDS011;13082;52.374;4.946;2022-09-12T02:52:22;17.33;;;13.47;;
25091;SDS011;13082;52.374;4.946;2022-09-12T02:54:49;17.70;;;13.30;;
25091;SDS011;13082;52.374;4.946;2022-09-12T02:57:16;18.33;;;13.60;;
25091;SDS011;13082;52.374;4.946;2022-09-12T02:59:44;22.03;;;13.77;;
25091;SDS011;13082;52.374;4.946;2022-09-12T03:05:00;20.93;;;14.63;;
25091;SDS011;13082;52.374;4.946;2022-09-12T03:16:03;18.70;;;13.90;;
25091;SDS011;13082;52.374;4.946;2022-09-12T03:18:43;22.10;;;13.27;;
25091;SDS011;13082;52.374;4.946;2022-09-12T03:21:41;20.43;;;14.20;;
25091;SDS011;13082;52.374;4.946;2022-09-12T03:24:33;20.60;;;14.13;;
25091;SDS011;13082;52.374;4.946;2022-09-12T03:27:21;20.13;;;13.93;;
25091;SDS011;13082;52.374;4.946;2022-09-12T03:29:53;20.57;;;14.00;;
25091;SDS011;13082;52.374;4.946;2022-09-12T03:32:38;19.60;;;13.90;;
25091;SDS011;13082;52.374;4.946;2022-09-12T03:35:05;22.47;;;15.80;;
25091;SDS011;13082;52.374;4.946;2022-09-12T03:37:31;20.97;;;14.80;;
25091;SDS011;13082;52.374;4.946;2022-09-12T03:39:56;22.87;;;14.17;;
25091;SDS011;13082;52.374;4.946;2022-09-12T03:42:22;20.33;;;14.20;;
25091;SDS011;13082;52.374;4.946;2022-09-12T03:44:47;18.47;;;14.57;;
25091;SDS011;13082;52.374;4.946;2022-09-12T03:47:13;22.07;;;15.07;;
25091;SDS011;13082;52.374;4.946;2022-09-12T03:49:38;21.17;;;15.23;;
25091;SDS011;13082;52.374;4.946;2022-09-12T03:52:04;20.93;;;14.73;;
25091;SDS011;13082;52.374;4.946;2022-09-12T03:54:30;21.33;;;14.97;;
25091;SDS011;13082;52.374;4.946;2022-09-12T03:56:55;23.30;;;15.00;;
25091;SDS011;13082;52.374;4.946;2022-09-12T03:59:21;23.53;;;15.77;;
25091;SDS011;13082;52.374;4.946;2022-09-12T04:01:46;24.27;;;16.53;;
25091;SDS011;13082;52.374;4.946;2022-09-12T04:04:12;23.87;;;15.47;;
25091;SDS011;13082;52.374;4.946;2022-09-12T04:06:37;21.77;;;16.20;;
25091;SDS011;13082;52.374;4.946;2022-09-12T04:09:03;21.60;;;15.63;;
25091;SDS011;13082;52.374;4.946;2022-09-12T04:11:29;26.67;;;15.23;;
25091;SDS011;13082;52.374;4.946;2022-09-12T04:13:56;25.03;;;16.63;;
25091;SDS011;13082;52.374;4.946;2022-09-12T04:16:21;24.37;;;16.63;;
25091;SDS011;13082;52.374;4.946;2022-09-12T04:18:47;22.97;;;16.27;;
25091;SDS011;13082;52.374;4.946;2022-09-12T04:21:16;29.10;;;18.50;;
25091;SDS011;13082;52.374;4.946;2022-09-12T04:23:43;27.07;;;16.87;;
25091;SDS011;13082;52.374;4.946;2022-09-12T04:26:09;24.27;;;17.00;;
25091;SDS011;13082;52.374;4.946;2022-09-12T04:28:37;24.43;;;17.03;;
25091;SDS011;13082;52.374;4.946;2022-09-12T04:31:21;24.93;;;16.57;;
25091;SDS011;13082;52.374;4.946;2022-09-12T04:33:57;27.17;;;17.70;;
25091;SDS011;13082;52.374;4.946;2022-09-12T04:36:24;23.97;;;17.00;;
25091;SDS011;13082;52.374;4.946;2022-09-12T04:38:52;23.40;;;16.10;;
25091;SDS011;13082;52.374;4.946;2022-09-12T04:41:19;28.77;;;18.37;;
25091;SDS011;13082;52.374;4.946;2022-09-12T04:43:54;25.67;;;17.87;;
25091;SDS011;13082;52.374;4.946;2022-09-12T04:46:23;26.70;;;17.33;;
25091;SDS011;13082;52.374;4.946;2022-09-12T04:48:49;23.57;;;16.67;;
25091;SDS011;13082;52.374;4.946;2022-09-12T04:51:16;25.53;;;16.33;;
25091;SDS011;13082;52.374;4.946;2022-09-12T04:53:48;26.33;;;17.07;;
25091;SDS011;13082;52.374;4.946;2022-09-12T04:56:15;25.10;;;17.23;;
25091;SDS011;13082;52.374;4.946;2022-09-12T04:58:41;22.70;;;16.43;;
25091;SDS011;13082;52.374;4.946;2022-09-12T05:01:07;25.10;;;16.70;;
25091;SDS011;13082;52.374;4.946;2022-09-12T05:03:37;25.67;;;17.17;;
25091;SDS011;13082;52.374;4.946;2022-09-12T05:06:04;23.87;;;16.07;;
25091;SDS011;13082;52.374;4.946;2022-09-12T05:08:32;25.63;;;16.47;;
25091;SDS011;13082;52.374;4.946;2022-09-12T05:11:03;22.07;;;15.70;;
25091;SDS011;13082;52.374;4.946;2022-09-12T05:13:30;25.37;;;16.33;;
25091;SDS011;13082;52.374;4.946;2022-09-12T05:15:57;24.70;;;17.07;;
25091;SDS011;13082;52.374;4.946;2022-09-12T05:18:25;27.40;;;16.93;;
25091;SDS011;13082;52.374;4.946;2022-09-12T05:20:52;22.90;;;16.03;;
25091;SDS011;13082;52.374;4.946;2022-09-12T05:23:18;27.43;;;17.47;;
25091;SDS011;13082;52.374;4.946;2022-09-12T05:25:48;28.40;;;17.63;;
25091;SDS011;13082;52.374;4.946;2022-09-12T05:28:18;23.33;;;16.00;;
25091;SDS011;13082;52.374;4.946;2022-09-12T05:30:45;23.27;;;16.60;;
25091;SDS011;13082;52.374;4.946;2022-09-12T05:33:11;26.53;;;17.20;;
25091;SDS011;13082;52.374;4.946;2022-09-12T05:35:37;23.53;;;16.17;;
25091;SDS011;13082;52.374;4.946;2022-09-12T05:38:04;27.40;;;16.80;;
25091;SDS011;13082;52.374;4.946;2022-09-12T05:40:30;24.83;;;16.80;;
25091;SDS011;13082;52.374;4.946;2022-09-12T05:42:56;26.77;;;16.67;;
25091;SDS011;13082;52.374;4.946;2022-09-12T05:45:22;27.90;;;17.23;;
25091;SDS011;13082;52.374;4.946;2022-09-12T05:47:47;23.50;;;15.00;;
25091;SDS011;13082;52.374;4.946;2022-09-12T05:50:13;27.17;;;17.07;;
25091;SDS011;13082;52.374;4.946;2022-09-12T05:52:39;27.30;;;17.57;;
25091;SDS011;13082;52.374;4.946;2022-09-12T05:55:04;24.57;;;16.23;;
25091;SDS011;13082;52.374;4.946;2022-09-12T05:57:30;26.83;;;17.40;;
25091;SDS011;13082;52.374;4.946;2022-09-12T05:59:57;20.50;;;14.83;;
25091;SDS011;13082;52.374;4.946;2022-09-12T06:02:23;21.97;;;14.87;;
25091;SDS011;13082;52.374;4.946;2022-09-12T06:04:48;22.17;;;14.90;;
25091;SDS011;13082;52.374;4.946;2022-09-12T06:07:14;24.40;;;15.87;;
25091;SDS011;13082;52.374;4.946;2022-09-12T06:09:39;24.97;;;16.17;;
25091;SDS011;13082;52.374;4.946;2022-09-12T06:12:05;23.00;;;15.57;;
25091;SDS011;13082;52.374;4.946;2022-09-12T06:14:32;23.63;;;15.97;;
25091;SDS011;13082;52.374;4.946;2022-09-12T06:16:58;24.10;;;15.40;;
25091;SDS011;13082;52.374;4.946;2022-09-12T06:19:25;28.07;;;15.47;;
25091;SDS011;13082;52.374;4.946;2022-09-12T06:21:52;24.73;;;15.30;;
25091;SDS011;13082;52.374;4.946;2022-09-12T06:24:20;25.77;;;16.63;;
25091;SDS011;13082;52.374;4.946;2022-09-12T06:26:46;26.73;;;17.20;;
25091;SDS011;13082;52.374;4.946;2022-09-12T06:29:13;25.50;;;16.03;;
25091;SDS011;13082;52.374;4.946;2022-09-12T06:31:40;25.57;;;16.07;;
25091;SDS011;13082;52.374;4.946;2022-09-12T06:34:07;25.37;;;16.17;;
25091;SDS011;13082;52.374;4.946;2022-09-12T06:36:38;26.27;;;16.70;;
25091;SDS011;13082;52.374;4.946;2022-09-12T06:39:10;22.47;;;16.33;;
25091;SDS011;13082;52.374;4.946;2022-09-12T06:41:40;26.00;;;15.77;;
25091;SDS011;13082;52.374;4.946;2022-09-12T06:44:06;21.43;;;15.03;;
25091;SDS011;13082;52.374;4.946;2022-09-12T06:46:32;22.03;;;15.33;;
25091;SDS011;13082;52.374;4.946;2022-09-12T06:48:58;24.97;;;15.70;;
25091;SDS011;13082;52.374;4.946;2022-09-12T06:51:24;23.33;;;16.27;;
25091;SDS011;13082;52.374;4.946;2022-09-12T06:53:53;24.40;;;15.50;;
25091;SDS011;13082;52.374;4.946;2022-09-12T06:56:20;24.40;;;15.00;;
25091;SDS011;13082;52.374;4.946;2022-09-12T06:58:48;26.47;;;16.80;;
25091;SDS011;13082;52.374;4.946;2022-09-12T07:01:15;23.87;;;16.53;;
25091;SDS011;13082;52.374;4.946;2022-09-12T07:03:42;23.27;;;16.07;;
25091;SDS011;13082;52.374;4.946;2022-09-12T07:06:12;22.70;;;15.60;;
25091;SDS011;13082;52.374;4.946;2022-09-12T07:08:39;21.17;;;14.77;;
25091;SDS011;13082;52.374;4.946;2022-09-12T07:11:10;25.97;;;16.70;;
25091;SDS011;13082;52.374;4.946;2022-09-12T07:13:36;24.30;;;16.00;;
25091;SDS011;13082;52.374;4.946;2022-09-12T07:16:03;23.60;;;15.10;;
25091;SDS011;13082;52.374;4.946;2022-09-12T07:18:30;24.57;;;15.93;;
25091;SDS011;13082;52.374;4.946;2022-09-12T07:20:59;21.90;;;15.27;;
25091;SDS011;13082;52.374;4.946;2022-09-12T07:23:26;23.87;;;15.50;;
25091;SDS011;13082;52.374;4.946;2022-09-12T07:25:52;25.93;;;15.87;;
25091;SDS011;13082;52.374;4.946;2022-09-12T07:28:21;22.50;;;15.00;;
25091;SDS011;13082;52.374;4.946;2022-09-12T07:30:50;21.07;;;14.80;;
25091;SDS011;13082;52.374;4.946;2022-09-12T07:33:18;21.83;;;14.93;;
25091;SDS011;13082;52.374;4.946;2022-09-12T07:35:44;20.73;;;14.30;;
25091;SDS011;13082;52.374;4.946;2022-09-12T07:38:10;25.67;;;14.30;;
25091;SDS011;13082;52.374;4.946;2022-09-12T07:40:36;20.20;;;14.03;;
25091;SDS011;13082;52.374;4.946;2022-09-12T07:43:01;20.50;;;13.13;;
25091;SDS011;13082;52.374;4.946;2022-09-12T07:45:27;24.20;;;14.38;;
25091;SDS011;13082;52.374;4.946;2022-09-12T07:47:53;18.25;;;12.60;;
25091;SDS011;13082;52.374;4.946;2022-09-12T07:50:19;21.90;;;15.20;;
25091;SDS011;13082;52.374;4.946;2022-09-12T07:52:44;21.42;;;13.90;;
25091;SDS011;13082;52.374;4.946;2022-09-12T07:55:10;19.55;;;13.82;;
25091;SDS011;13082;52.374;4.946;2022-09-12T07:57:36;18.42;;;13.80;;
25091;SDS011;13082;52.374;4.946;2022-09-12T08:00:02;24.77;;;13.95;;
25091;SDS011;13082;52.374;4.946;2022-09-12T08:02:28;17.13;;;12.30;;
25091;SDS011;13082;52.374;4.946;2022-09-12T08:04:54;20.98;;;12.98;;
25091;SDS011;13082;52.374;4.946;2022-09-12T08:07:20;23.25;;;12.93;;
25091;SDS011;13082;52.374;4.946;2022-09-12T08:09:46;15.45;;;10.95;;
25091;SDS011;13082;52.374;4.946;2022-09-12T08:12:11;13.18;;;10.05;;
25091;SDS011;13082;52.374;4.946;2022-09-12T08:14:37;19.15;;;12.45;;
25091;SDS011;13082;52.374;4.946;2022-09-12T08:17:03;16.35;;;11.30;;
25091;SDS011;13082;52.374;4.946;2022-09-12T08:19:28;19.88;;;12.15;;
25091;SDS011;13082;52.374;4.946;2022-09-12T08:21:55;16.48;;;11.00;;
25091;SDS011;13082;52.374;4.946;2022-09-12T08:24:21;19.88;;;11.25;;
25091;SDS011;13082;52.374;4.946;2022-09-12T08:26:46;16.35;;;10.73;;
25091;SDS011;13082;52.374;4.946;2022-09-12T08:29:12;16.05;;;11.60;;
25091;SDS011;13082;52.374;4.946;2022-09-12T08:31:38;16.65;;;10.25;;
25091;SDS011;13082;52.374;4.946;2022-09-12T08:34:05;15.55;;;10.65;;
25091;SDS011;13082;52.374;4.946;2022-09-12T08:36:31;13.85;;;11.00;;
25091;SDS011;13082;52.374;4.946;2022-09-12T08:38:58;14.90;;;9.98;;
25091;SDS011;13082;52.374;4.946;2022-09-12T08:49:59;17.08;;;12.10;;
25091;SDS011;13082;52.374;4.946;2022-09-12T08:55:05;15.43;;;10.45;;
25091;SDS011;13082;52.374;4.946;2022-09-12T08:57:57;13.73;;;10.35;;
25091;SDS011;13082;52.374;4.946;2022-09-12T09:00:29;19.17;;;12.25;;
25091;SDS011;13082;52.374;4.946;2022-09-12T09:03:17;17.95;;;11.07;;
25091;SDS011;13082;52.374;4.946;2022-09-12T09:06:00;15.25;;;10.90;;
25091;SDS011;13082;52.374;4.946;2022-09-12T09:08:43;16.40;;;11.85;;
25091;SDS011;13082;52.374;4.946;2022-09-12T09:14:22;15.73;;;11.30;;
25091;SDS011;13082;52.374;4.946;2022-09-12T09:17:24;15.82;;;11.05;;
25091;SDS011;13082;52.374;4.946;2022-09-12T09:25:28;16.52;;;11.43;;
25091;SDS011;13082;52.374;4.946;2022-09-12T09:28:21;15.45;;;11.40;;
25091;SDS011;13082;52.374;4.946;2022-09-12T09:30:53;15.82;;;11.40;;
25091;SDS011;13082;52.374;4.946;2022-09-12T09:33:27;14.95;;;10.70;;
25091;SDS011;13082;52.374;4.946;2022-09-12T09:38:48;16.20;;;9.90;;
25091;SDS011;13082;52.374;4.946;2022-09-12T09:41:36;14.50;;;9.65;;
25091;SDS011;13082;52.374;4.946;2022-09-12T09:44:04;11.40;;;8.70;;
25091;SDS011;13082;52.374;4.946;2022-09-12T09:46:30;13.18;;;9.40;;
25091;SDS011;13082;52.374;4.946;2022-09-12T09:48:57;11.32;;;9.35;;
25091;SDS011;13082;52.374;4.946;2022-09-12T09:51:28;13.95;;;9.20;;
25091;SDS011;13082;52.374;4.946;2022-09-12T09:54:09;12.35;;;9.27;;
25091;SDS011;13082;52.374;4.946;2022-09-12T09:56:40;11.98;;;9.93;;
25091;SDS011;13082;52.374;4.946;2022-09-12T09:59:09;15.70;;;9.32;;
25091;SDS011;13082;52.374;4.946;2022-09-12T10:01:49;13.60;;;9.82;;
25091;SDS011;13082;52.374;4.946;2022-09-12T10:04:34;14.00;;;10.23;;
25091;SDS011;13082;52.374;4.946;2022-09-12T10:07:03;13.82;;;9.63;;
25091;SDS011;13082;52.374;4.946;2022-09-12T10:09:33;14.20;;;9.82;;
25091;SDS011;13082;52.374;4.946;2022-09-12T10:12:20;17.55;;;9.15;;
25091;SDS011;13082;52.374;4.946;2022-09-12T10:14:59;12.98;;;9.18;;
25091;SDS011;13082;52.374;4.946;2022-09-12T10:17:29;14.93;;;9.75;;
25091;SDS011;13082;52.374;4.946;2022-09-12T10:20:28;12.63;;;8.57;;
25091;SDS011;13082;52.374;4.946;2022-09-12T10:22:55;11.73;;;8.23;;
25091;SDS011;13082;52.374;4.946;2022-09-12T10:25:22;12.18;;;9.60;;
25091;SDS011;13082;52.374;4.946;2022-09-12T10:27:57;17.30;;;10.02;;
25091;SDS011;13082;52.374;4.946;2022-09-12T10:30:24;14.05;;;10.85;;
25091;SDS011;13082;52.374;4.946;2022-09-12T10:32:52;13.10;;;9.75;;
25091;SDS011;13082;52.374;4.946;2022-09-12T10:35:23;11.73;;;9.20;;
25091;SDS011;13082;52.374;4.946;2022-09-12T10:40:32;12.07;;;8.95;;
25091;SDS011;13082;52.374;4.946;2022-09-12T10:45:49;12.15;;;9.90;;
25091;SDS011;13082;52.374;4.946;2022-09-12T10:50:46;16.40;;;8.95;;
25091;SDS011;13082;52.374;4.946;2022-09-12T10:53:13;12.82;;;9.25;;
25091;SDS011;13082;52.374;4.946;2022-09-12T11:04:04;10.32;;;8.20;;
25091;SDS011;13082;52.374;4.946;2022-09-12T11:15:10;10.05;;;8.60;;
25091;SDS011;13082;52.374;4.946;2022-09-12T11:17:50;10.20;;;7.47;;
25091;SDS011;13082;52.374;4.946;2022-09-12T11:20:32;10.63;;;8.27;;
25091;SDS011;13082;52.374;4.946;2022-09-12T11:23:16;12.27;;;7.78;;
25091;SDS011;13082;52.374;4.946;2022-09-12T11:39:39;9.32;;;7.25;;
25091;SDS011;13082;52.374;4.946;2022-09-12T11:42:15;8.88;;;6.47;;
25091;SDS011;13082;52.374;4.946;2022-09-12T11:44:45;9.30;;;6.95;;
25091;SDS011;13082;52.374;4.946;2022-09-12T11:47:14;8.63;;;6.82;;
25091;SDS011;13082;52.374;4.946;2022-09-12T11:49:44;7.28;;;5.60;;
25091;SDS011;13082;52.374;4.946;2022-09-12T11:52:23;11.52;;;6.90;;
25091;SDS011;13082;52.374;4.946;2022-09-12T11:57:29;8.60;;;5.97;;
25091;SDS011;13082;52.374;4.946;2022-09-12T12:02:49;8.48;;;5.53;;
25091;SDS011;13082;52.374;4.946;2022-09-12T12:08:33;6.43;;;5.18;;
25091;SDS011;13082;52.374;4.946;2022-09-12T12:11:04;7.90;;;5.22;;
25091;SDS011;13082;52.374;4.946;2022-09-12T12:13:33;6.38;;;4.38;;
25091;SDS011;13082;52.374;4.946;2022-09-12T12:18:36;4.63;;;4.15;;
25091;SDS011;13082;52.374;4.946;2022-09-12T12:32:17;4.57;;;3.60;;
25091;SDS011;13082;52.374;4.946;2022-09-12T12:34:44;5.53;;;3.38;;
25091;SDS011;13082;52.374;4.946;2022-09-12T12:47:38;4.30;;;3.30;;
25091;SDS011;13082;52.374;4.946;2022-09-12T12:50:12;5.47;;;3.28;;
25091;SDS011;13082;52.374;4.946;2022-09-12T12:52:51;2.97;;;2.67;;
25091;SDS011;13082;52.374;4.946;2022-09-12T12:55:27;4.93;;;3.42;;
25091;SDS011;13082;52.374;4.946;2022-09-12T12:58:30;4.28;;;2.95;;
25091;SDS011;13082;52.374;4.946;2022-09-12T13:03:30;4.18;;;3.45;;
25091;SDS011;13082;52.374;4.946;2022-09-12T13:05:59;6.03;;;3.15;;
25091;SDS011;13082;52.374;4.946;2022-09-12T13:08:34;4.60;;;2.78;;
25091;SDS011;13082;52.374;4.946;2022-09-12T13:11:06;3.10;;;2.35;;
25091;SDS011;13082;52.374;4.946;2022-09-12T13:13:48;4.97;;;3.00;;
25091;SDS011;13082;52.374;4.946;2022-09-12T13:19:05;3.67;;;3.05;;
25091;SDS011;13082;52.374;4.946;2022-09-12T13:21:37;3.28;;;2.97;;
25091;SDS011;13082;52.374;4.946;2022-09-12T13:24:04;7.25;;;2.63;;
25091;SDS011;13082;52.374;4.946;2022-09-12T13:26:43;5.25;;;3.35;;
25091;SDS011;13082;52.374;4.946;2022-09-12T13:29:18;4.03;;;3.47;;
25091;SDS011;13082;52.374;4.946;2022-09-12T13:31:47;3.95;;;3.42;;
25091;SDS011;13082;52.374;4.946;2022-09-12T13:34:20;4.22;;;2.88;;
25091;SDS011;13082;52.374;4.946;2022-09-12T13:47:43;5.88;;;4.00;;
25091;SDS011;13082;52.374;4.946;2022-09-12T13:50:21;5.00;;;3.97;;
25091;SDS011;13082;52.374;4.946;2022-09-12T13:52:51;4.78;;;3.45;;
25091;SDS011;13082;52.374;4.946;2022-09-12T13:55:38;4.13;;;3.25;;
25091;SDS011;13082;52.374;4.946;2022-09-12T13:58:18;3.90;;;2.67;;
25091;SDS011;13082;52.374;4.946;2022-09-12T14:03:52;4.10;;;3.15;;
25091;SDS011;13082;52.374;4.946;2022-09-12T14:06:48;2.95;;;2.70;;
25091;SDS011;13082;52.374;4.946;2022-09-12T14:09:19;3.47;;;2.70;;
25091;SDS011;13082;52.374;4.946;2022-09-12T14:11:52;3.33;;;2.92;;
25091;SDS011;13082;52.374;4.946;2022-09-12T14:14:19;4.15;;;3.40;;
25091;SDS011;13082;52.374;4.946;2022-09-12T14:16:51;3.85;;;3.38;;
25091;SDS011;13082;52.374;4.946;2022-09-12T14:19:18;3.55;;;3.20;;
25091;SDS011;13082;52.374;4.946;2022-09-12T14:21:47;10.73;;;2.53;;
25091;SDS011;13082;52.374;4.946;2022-09-12T14:24:14;2.58;;;2.38;;
25091;SDS011;13082;52.374;4.946;2022-09-12T14:26:41;3.72;;;3.28;;
25091;SDS011;13082;52.374;4.946;2022-09-12T14:29:08;5.43;;;3.05;;
25091;SDS011;13082;52.374;4.946;2022-09-12T14:31:40;4.05;;;2.42;;
25091;SDS011;13082;52.374;4.946;2022-09-12T14:36:41;3.33;;;2.40;;
25091;SDS011;13082;52.374;4.946;2022-09-12T14:39:16;3.42;;;2.50;;
25091;SDS011;13082;52.374;4.946;2022-09-12T14:44:52;3.65;;;2.97;;
25091;SDS011;13082;52.374;4.946;2022-09-12T14:47:38;5.97;;;2.92;;
25091;SDS011;13082;52.374;4.946;2022-09-12T14:50:17;5.15;;;2.65;;
25091;SDS011;13082;52.374;4.946;2022-09-12T14:52:46;3.97;;;2.67;;
25091;SDS011;13082;52.374;4.946;2022-09-12T14:55:31;3.35;;;2.63;;
25091;SDS011;13082;52.374;4.946;2022-09-12T15:00:57;2.78;;;2.50;;
25091;SDS011;13082;52.374;4.946;2022-09-12T15:03:33;5.80;;;3.15;;
25091;SDS011;13082;52.374;4.946;2022-09-12T15:06:01;2.58;;;2.10;;
25091;SDS011;13082;52.374;4.946;2022-09-12T15:08:29;2.67;;;2.30;;
25091;SDS011;13082;52.374;4.946;2022-09-12T15:10:56;3.05;;;2.53;;
25091;SDS011;13082;52.374;4.946;2022-09-12T15:13:24;2.95;;;2.45;;
25091;SDS011;13082;52.374;4.946;2022-09-12T15:18:17;2.40;;;2.20;;
25091;SDS011;13082;52.374;4.946;2022-09-12T15:20:44;3.53;;;2.05;;
25091;SDS011;13082;52.374;4.946;2022-09-12T15:25:47;2.40;;;2.10;;
25091;SDS011;13082;52.374;4.946;2022-09-12T15:28:17;3.28;;;2.58;;
25091;SDS011;13082;52.374;4.946;2022-09-12T15:30:45;2.47;;;2.05;;
25091;SDS011;13082;52.374;4.946;2022-09-12T15:33:13;3.30;;;1.83;;
25091;SDS011;13082;52.374;4.946;2022-09-12T15:35:39;7.78;;;3.15;;
25091;SDS011;13082;52.374;4.946;2022-09-12T15:38:04;2.22;;;2.10;;
25091;SDS011;13082;52.374;4.946;2022-09-12T15:40:30;3.25;;;2.17;;
25091;SDS011;13082;52.374;4.946;2022-09-12T15:42:56;3.13;;;2.50;;
25091;SDS011;13082;52.374;4.946;2022-09-12T15:45:22;4.22;;;2.13;;
25091;SDS011;13082;52.374;4.946;2022-09-12T15:47:52;3.97;;;2.10;;
25091;SDS011;13082;52.374;4.946;2022-09-12T15:50:18;3.20;;;2.30;;
25091;SDS011;13082;52.374;4.946;2022-09-12T15:52:43;2.70;;;2.50;;
25091;SDS011;13082;52.374;4.946;2022-09-12T15:55:16;2.67;;;2.20;;
25091;SDS011;13082;52.374;4.946;2022-09-12T15:57:46;2.97;;;2.40;;
25091;SDS011;13082;52.374;4.946;2022-09-12T16:00:13;3.38;;;2.55;;
25091;SDS011;13082;52.374;4.946;2022-09-12T16:02:40;4.53;;;2.15;;
25091;SDS011;13082;52.374;4.946;2022-09-12T16:05:09;3.60;;;2.38;;
25091;SDS011;13082;52.374;4.946;2022-09-12T16:07:41;3.70;;;2.30;;
25091;SDS011;13082;52.374;4.946;2022-09-12T16:10:08;2.60;;;2.40;;
25091;SDS011;13082;52.374;4.946;2022-09-12T16:12:38;2.88;;;2.42;;
25091;SDS011;13082;52.374;4.946;2022-09-12T16:15:04;3.63;;;2.40;;
25091;SDS011;13082;52.374;4.946;2022-09-12T16:17:30;3.25;;;2.83;;
25091;SDS011;13082;52.374;4.946;2022-09-12T16:19:56;2.05;;;1.95;;
25091;SDS011;13082;52.374;4.946;2022-09-12T16:22:21;3.22;;;2.28;;
25091;SDS011;13082;52.374;4.946;2022-09-12T16:24:47;2.38;;;1.73;;
25091;SDS011;13082;52.374;4.946;2022-09-12T16:27:12;2.65;;;2.03;;
25091;SDS011;13082;52.374;4.946;2022-09-12T16:29:38;2.95;;;2.40;;
25091;SDS011;13082;52.374;4.946;2022-09-12T16:32:04;2.38;;;1.95;;
25091;SDS011;13082;52.374;4.946;2022-09-12T16:34:30;3.45;;;2.22;;
25091;SDS011;13082;52.374;4.946;2022-09-12T16:36:55;2.30;;;2.08;;
25091;SDS011;13082;52.374;4.946;2022-09-12T16:39:21;4.40;;;2.10;;
25091;SDS011;13082;52.374;4.946;2022-09-12T16:41:46;4.15;;;2.20;;
25091;SDS011;13082;52.374;4.946;2022-09-12T16:44:12;4.25;;;2.03;;
25091;SDS011;13082;52.374;4.946;2022-09-12T16:46:37;3.75;;;2.10;;
25091;SDS011;13082;52.374;4.946;2022-09-12T16:49:03;2.92;;;2.30;;
25091;SDS011;13082;52.374;4.946;2022-09-12T16:51:30;2.28;;;2.08;;
25091;SDS011;13082;52.374;4.946;2022-09-12T16:53:59;2.65;;;2.45;;
25091;SDS011;13082;52.374;4.946;2022-09-12T16:56:25;2.75;;;1.90;;
25091;SDS011;13082;52.374;4.946;2022-09-12T16:58:51;4.30;;;2.10;;
25091;SDS011;13082;52.374;4.946;2022-09-12T17:01:18;3.13;;;2.25;;
25091;SDS011;13082;52.374;4.946;2022-09-12T17:03:45;2.67;;;2.00;;
25091;SDS011;13082;52.374;4.946;2022-09-12T17:06:15;2.53;;;2.33;;
25091;SDS011;13082;52.374;4.946;2022-09-12T17:08:51;2.25;;;2.05;;
25091;SDS011;13082;52.374;4.946;2022-09-12T17:11:20;2.88;;;2.20;;
25091;SDS011;13082;52.374;4.946;2022-09-12T17:13:48;3.83;;;2.47;;
25091;SDS011;13082;52.374;4.946;2022-09-12T17:16:15;2.45;;;2.22;;
25091;SDS011;13082;52.374;4.946;2022-09-12T17:18:41;2.50;;;2.30;;
25091;SDS011;13082;52.374;4.946;2022-09-12T17:21:07;2.70;;;2.50;;
25091;SDS011;13082;52.374;4.946;2022-09-12T17:23:34;4.78;;;2.47;;
25091;SDS011;13082;52.374;4.946;2022-09-12T17:26:00;2.10;;;1.98;;
25091;SDS011;13082;52.374;4.946;2022-09-12T17:28:26;4.28;;;2.88;;
25091;SDS011;13082;52.374;4.946;2022-09-12T17:30:59;4.68;;;2.30;;
25091;SDS011;13082;52.374;4.946;2022-09-12T17:33:25;4.00;;;2.22;;
25091;SDS011;13082;52.374;4.946;2022-09-12T17:35:52;2.08;;;1.88;;
25091;SDS011;13082;52.374;4.946;2022-09-12T17:38:18;2.28;;;2.00;;